< < Back
Terminal Aerodrome Forecast


Current Version              Previous Versions:   1  2  3  4  5  6  7  8  9  

Terminal Aerodrome Forecast

707
FTUS42 KGSP 231529 AAA
TAFAVL
TAF AMD
KAVL 231529Z 2315/2412 16005KT 1SM -RA OVC005
     FM231800 16011KT 4SM +RA OVC005 WS020/13040KT
     FM232200 14011KT 2SM +SHRA BR OVC005
     FM240400 16009KT 2SM RA BR BKN009 OVC015 WS020/20045KT
     FM240600 17010KT 6SM -RA BR BKN009 OVC015 WS020/21045KT=

Latest METAR

713
SAUS70 KWBC 240300 RRJ
MTRAVL
METAR KAVL 240254Z VRB03KT 10SM OVC004 11/09 A2973 RMK AO2 RAB03E43
SLP061 P0001 60041 T01060094 58007


USA.gov is the U.S. government's official web portal to all federal, state and local government web resources and services.